createdAt,value
2018-12-25T00:02:22.234Z,13.93
2018-12-25T00:04:49.017Z,12.77
2018-12-25T00:07:15.808Z,14.70
2018-12-25T00:09:42.522Z,13.13
2018-12-25T00:12:08.984Z,12.50
2018-12-25T00:14:35.758Z,12.87
2018-12-25T00:17:02.412Z,13.97
2018-12-25T00:19:29.670Z,11.50
2018-12-25T00:21:56.081Z,12.03
2018-12-25T00:24:22.831Z,12.67
2018-12-25T00:26:49.254Z,12.27
2018-12-25T00:29:15.741Z,13.23
2018-12-25T00:31:42.157Z,13.40
2018-12-25T00:34:08.571Z,13.57
2018-12-25T00:36:34.963Z,13.77
2018-12-25T00:39:01.578Z,13.07
2018-12-25T00:41:28.018Z,12.73
2018-12-25T00:43:54.830Z,13.77
2018-12-25T00:46:21.279Z,14.23
2018-12-25T00:48:48.087Z,13.50
2018-12-25T00:51:14.610Z,12.63
2018-12-25T00:53:41.346Z,11.10
2018-12-25T00:56:08.275Z,12.23
2018-12-25T00:58:34.853Z,13.23
2018-12-25T01:01:01.243Z,12.87
2018-12-25T01:03:28.039Z,13.27
2018-12-25T01:05:54.822Z,13.47
2018-12-25T01:08:21.362Z,12.60
2018-12-25T01:10:47.886Z,12.03
2018-12-25T01:13:14.700Z,11.80
2018-12-25T01:15:41.095Z,13.40
2018-12-25T01:18:07.858Z,12.27
2018-12-25T01:20:34.615Z,11.67
2018-12-25T01:23:02.089Z,11.83
2018-12-25T01:25:28.632Z,12.60
2018-12-25T01:27:55.467Z,11.70
2018-12-25T01:30:21.892Z,14.43
2018-12-25T01:32:48.447Z,14.73
2018-12-25T01:35:15.362Z,12.57
2018-12-25T01:37:42.148Z,14.43
2018-12-25T01:40:08.700Z,12.40
2018-12-25T01:42:35.087Z,13.13
2018-12-25T01:45:01.807Z,11.77
2018-12-25T01:47:28.622Z,13.17
2018-12-25T01:49:55.025Z,13.07
2018-12-25T01:52:21.653Z,12.73
2018-12-25T01:54:48.051Z,11.97
2018-12-25T01:57:14.447Z,12.50
2018-12-25T01:59:40.831Z,14.00
2018-12-25T02:02:07.201Z,12.90
2018-12-25T02:04:34.847Z,13.67
2018-12-25T02:07:01.261Z,12.97
2018-12-25T02:09:27.752Z,11.40
2018-12-25T02:11:54.123Z,11.13
2018-12-25T02:14:20.557Z,18.40
2018-12-25T02:16:47.234Z,13.83
2018-12-25T02:19:13.625Z,12.43
2018-12-25T02:21:40.060Z,15.93
2018-12-25T02:24:06.474Z,13.23
2018-12-25T02:26:33.065Z,14.00
2018-12-25T02:28:59.499Z,15.13
2018-12-25T02:31:25.910Z,13.33
2018-12-25T02:33:52.330Z,11.47
2018-12-25T02:36:18.813Z,15.97
2018-12-25T02:38:45.613Z,12.50
2018-12-25T02:41:12.321Z,13.57
2018-12-25T02:43:38.683Z,14.73
2018-12-25T02:46:05.511Z,12.70
2018-12-25T02:48:32.283Z,12.23
2018-12-25T02:50:58.847Z,12.77
2018-12-25T02:53:25.641Z,14.63
2018-12-25T02:55:52.076Z,14.63
2018-12-25T02:58:18.623Z,12.80
2018-12-25T03:00:46.615Z,13.90
2018-12-25T03:03:13.238Z,15.13
2018-12-25T03:05:39.608Z,11.33
2018-12-25T03:08:06.436Z,13.10
2018-12-25T03:10:32.853Z,15.53
2018-12-25T03:12:59.272Z,14.10
2018-12-25T03:15:25.703Z,14.00
2018-12-25T03:17:52.113Z,15.07
2018-12-25T03:20:18.495Z,12.30
2018-12-25T03:22:45.327Z,10.47
2018-12-25T03:25:11.762Z,12.77
2018-12-25T03:27:38.194Z,13.40
2018-12-25T03:30:05.004Z,16.47
2018-12-25T03:32:31.436Z,13.07
2018-12-25T03:34:57.801Z,12.60
2018-12-25T03:37:24.463Z,12.13
2018-12-25T03:39:50.958Z,10.73
2018-12-25T03:42:17.530Z,12.30
2018-12-25T03:44:43.944Z,12.83
2018-12-25T03:47:10.383Z,16.00
2018-12-25T03:49:38.053Z,10.90
2018-12-25T03:52:04.526Z,14.77
2018-12-25T03:54:30.886Z,13.13
2018-12-25T03:56:57.464Z,11.63
2018-12-25T03:59:23.900Z,14.13
2018-12-25T04:01:50.274Z,14.43
2018-12-25T04:04:16.811Z,13.63
2018-12-25T04:06:43.521Z,11.63
2018-12-25T04:09:09.929Z,15.10
2018-12-25T04:11:36.351Z,13.13
2018-12-25T04:14:03.016Z,10.83
2018-12-25T04:16:29.533Z,12.67
2018-12-25T04:18:56.083Z,15.70
2018-12-25T04:21:22.491Z,14.13
2018-12-25T04:23:48.968Z,12.87
2018-12-25T04:26:15.552Z,16.30
2018-12-25T04:28:42.369Z,12.63
2018-12-25T04:31:08.840Z,12.90
2018-12-25T04:33:35.589Z,12.40
2018-12-25T04:36:02.518Z,12.33
2018-12-25T04:38:29.092Z,13.17
2018-12-25T04:40:55.574Z,15.37
2018-12-25T04:43:22.110Z,13.47
2018-12-25T04:45:48.721Z,14.50
2018-12-25T04:48:15.184Z,13.47
2018-12-25T04:50:41.586Z,12.73
2018-12-25T04:53:08.191Z,14.67
2018-12-25T04:55:35.284Z,11.77
2018-12-25T04:58:01.741Z,12.83
2018-12-25T05:00:28.128Z,10.63
2018-12-25T05:02:54.883Z,14.00
2018-12-25T05:05:21.288Z,12.70
2018-12-25T05:07:47.762Z,13.37
2018-12-25T05:10:14.286Z,12.27
2018-12-25T05:12:40.844Z,12.00
2018-12-25T05:15:07.223Z,13.77
2018-12-25T05:17:33.632Z,13.33
2018-12-25T05:20:00.051Z,15.97
2018-12-25T05:22:26.404Z,12.00
2018-12-25T05:24:52.801Z,13.67
2018-12-25T05:27:19.584Z,11.57
2018-12-25T05:29:46.034Z,13.93
2018-12-25T05:32:12.658Z,12.50
2018-12-25T05:34:39.222Z,13.70
2018-12-25T05:37:05.944Z,11.97
2018-12-25T05:39:32.476Z,14.37
2018-12-25T05:41:59.265Z,12.93
2018-12-25T05:44:25.648Z,14.63
2018-12-25T05:46:52.434Z,15.70
2018-12-25T05:49:18.840Z,14.53
2018-12-25T05:51:45.240Z,14.10
2018-12-25T05:54:12.082Z,12.17
2018-12-25T05:56:38.837Z,11.77
2018-12-25T05:59:05.247Z,12.97
2018-12-25T06:01:32.090Z,13.17
2018-12-25T06:03:58.910Z,12.67
2018-12-25T06:06:25.347Z,12.37
2018-12-25T06:08:51.790Z,16.10
2018-12-25T06:11:20.136Z,14.97
2018-12-25T06:13:46.715Z,16.10
2018-12-25T06:16:13.518Z,14.10
2018-12-25T06:18:39.995Z,12.57
2018-12-25T06:21:08.411Z,14.67
2018-12-25T06:23:34.868Z,13.50
2018-12-25T06:26:01.513Z,14.33
2018-12-25T06:28:28.370Z,13.33
2018-12-25T06:30:54.867Z,13.93
2018-12-25T06:33:23.216Z,16.70
2018-12-25T06:35:49.616Z,14.93
2018-12-25T06:38:16.048Z,17.50
2018-12-25T06:40:42.585Z,12.63
2018-12-25T06:43:09.067Z,14.03
2018-12-25T06:45:35.651Z,17.80
2018-12-25T06:48:02.170Z,15.80
2018-12-25T06:50:28.784Z,18.17
2018-12-25T06:52:55.150Z,17.03
2018-12-25T06:55:21.697Z,14.87
2018-12-25T06:57:48.058Z,17.47
2018-12-25T07:00:15.432Z,16.03
2018-12-25T07:02:42.289Z,15.90
2018-12-25T07:05:08.769Z,16.63
2018-12-25T07:07:35.223Z,15.67
2018-12-25T07:10:01.726Z,15.17
2018-12-25T07:12:28.396Z,14.20
2018-12-25T07:14:55.268Z,14.67
2018-12-25T07:17:21.624Z,15.90
2018-12-25T07:19:48.030Z,17.27
2018-12-25T07:22:14.406Z,14.07
2018-12-25T07:24:40.947Z,14.73
2018-12-25T07:27:07.482Z,15.27
2018-12-25T07:29:33.929Z,16.40
2018-12-25T07:32:00.779Z,15.07
2018-12-25T07:37:33.584Z,14.20
2018-12-25T07:40:00.165Z,16.87
2018-12-25T07:42:26.768Z,15.67
2018-12-25T07:44:54.468Z,18.27
2018-12-25T07:47:20.937Z,15.07
2018-12-25T07:49:47.428Z,18.33
2018-12-25T07:52:13.859Z,17.97
2018-12-25T07:54:40.549Z,18.67
2018-12-25T07:57:07.444Z,18.57
2018-12-25T07:59:33.946Z,17.30
2018-12-25T08:02:02.669Z,17.13
2018-12-25T08:04:28.929Z,18.27
2018-12-25T08:06:55.371Z,20.07
2018-12-25T08:09:21.846Z,17.17
2018-12-25T08:11:48.233Z,18.87
2018-12-25T08:14:14.720Z,19.73
2018-12-25T08:16:41.466Z,20.53
2018-12-25T08:19:08.077Z,20.77
2018-12-25T08:21:34.477Z,20.37
2018-12-25T08:24:00.886Z,21.40
2018-12-25T08:26:28.879Z,17.23
2018-12-25T08:28:55.372Z,19.70
2018-12-25T08:31:21.895Z,21.97
2018-12-25T08:33:48.427Z,20.20
2018-12-25T08:36:15.316Z,18.60
2018-12-25T08:38:41.925Z,18.83
2018-12-25T08:41:08.363Z,20.67
2018-12-25T08:43:34.753Z,20.47
2018-12-25T08:46:01.180Z,17.90
2018-12-25T08:48:28.006Z,21.70
2018-12-25T08:50:54.420Z,18.87
2018-12-25T08:53:21.165Z,17.50
2018-12-25T08:55:47.726Z,17.23
2018-12-25T08:58:14.150Z,18.13
2018-12-25T09:00:40.561Z,18.00
2018-12-25T09:03:06.927Z,20.03
2018-12-25T09:05:33.323Z,17.10
2018-12-25T09:07:59.689Z,17.90
2018-12-25T09:10:26.439Z,17.00
2018-12-25T09:12:52.886Z,18.00
2018-12-25T09:15:19.770Z,16.60
2018-12-25T09:17:46.299Z,15.87
2018-12-25T09:20:13.130Z,15.33
2018-12-25T09:22:39.559Z,19.33
2018-12-25T09:25:06.113Z,20.23
2018-12-25T09:27:32.504Z,16.73
2018-12-25T09:29:59.227Z,17.27
2018-12-25T09:32:27.004Z,16.13
2018-12-25T09:34:53.670Z,17.33
2018-12-25T09:37:20.485Z,14.90
2018-12-25T09:39:47.197Z,16.00
2018-12-25T09:42:13.613Z,16.73
2018-12-25T09:44:40.427Z,14.87
2018-12-25T09:47:06.911Z,15.03
2018-12-25T09:49:33.315Z,15.60
2018-12-25T09:52:00.127Z,16.63
2018-12-25T09:54:26.600Z,17.50
2018-12-25T09:56:53.417Z,17.27
2018-12-25T09:59:19.778Z,14.37
2018-12-25T10:01:46.206Z,13.83
2018-12-25T10:04:13.199Z,14.60
2018-12-25T10:06:39.594Z,15.80
2018-12-25T10:09:06.319Z,12.77
2018-12-25T10:11:32.745Z,13.97
2018-12-25T10:14:00.436Z,15.07
2018-12-25T10:16:26.964Z,15.17
2018-12-25T10:18:53.464Z,13.97
2018-12-25T10:21:20.112Z,13.17
2018-12-25T10:23:46.911Z,12.43
2018-12-25T10:26:13.696Z,13.33
2018-12-25T10:28:40.066Z,11.43
2018-12-25T10:31:07.312Z,12.90
2018-12-25T10:33:33.808Z,12.30
2018-12-25T10:36:00.283Z,14.70
2018-12-25T10:38:26.702Z,13.20
2018-12-25T10:40:53.218Z,12.60
2018-12-25T10:43:19.726Z,12.90
2018-12-25T10:45:46.214Z,12.93
2018-12-25T10:48:12.701Z,13.93
2018-12-25T10:50:39.471Z,14.97
2018-12-25T10:53:06.066Z,10.73
2018-12-25T10:55:33.540Z,12.97
2018-12-25T10:58:00.520Z,12.70
2018-12-25T11:00:29.084Z,12.77
2018-12-25T11:02:55.847Z,12.17
2018-12-25T11:05:22.274Z,13.30
2018-12-25T11:07:48.789Z,19.00
2018-12-25T11:10:15.251Z,11.50
2018-12-25T11:12:41.810Z,10.90
2018-12-25T11:15:08.173Z,11.00
2018-12-25T11:17:34.602Z,13.13
2018-12-25T11:20:01.441Z,11.27
2018-12-25T11:22:27.963Z,11.77
2018-12-25T11:24:54.336Z,10.90
2018-12-25T11:27:23.617Z,10.37
2018-12-25T11:29:53.168Z,10.53
2018-12-25T11:32:19.570Z,12.33
2018-12-25T11:34:49.144Z,12.67
2018-12-25T11:37:15.557Z,10.47
2018-12-25T11:39:43.199Z,12.20
2018-12-25T11:42:09.612Z,10.53
2018-12-25T11:44:36.367Z,10.47
2018-12-25T11:47:02.874Z,14.10
2018-12-25T11:49:29.678Z,10.70
2018-12-25T11:51:56.220Z,14.53
2018-12-25T11:54:22.847Z,10.17
2018-12-25T11:56:49.425Z,12.57
2018-12-25T11:59:15.931Z,12.60
2018-12-25T12:01:44.475Z,11.07
2018-12-25T12:04:10.976Z,10.53
2018-12-25T12:06:37.512Z,11.60
2018-12-25T12:09:05.460Z,11.43
2018-12-25T12:11:32.279Z,10.67
2018-12-25T12:13:58.715Z,13.33
2018-12-25T12:16:25.191Z,13.40
2018-12-25T12:18:51.991Z,12.37
2018-12-25T12:21:18.748Z,13.37
2018-12-25T12:23:45.455Z,13.60
2018-12-25T12:26:11.956Z,13.60
2018-12-25T12:28:38.579Z,15.00
2018-12-25T12:31:05.138Z,13.73
2018-12-25T12:33:31.647Z,15.47
2018-12-25T12:35:58.181Z,13.13
2018-12-25T12:38:24.965Z,11.47
2018-12-25T12:40:51.439Z,13.57
2018-12-25T12:43:19.119Z,13.90
2018-12-25T12:45:45.680Z,13.90
2018-12-25T12:48:12.255Z,14.40
2018-12-25T12:50:38.713Z,13.50
2018-12-25T12:53:05.097Z,12.37
2018-12-25T12:55:32.105Z,13.10
2018-12-25T12:57:59.851Z,11.13
2018-12-25T13:00:26.325Z,12.10
2018-12-25T13:02:53.492Z,13.40
2018-12-25T13:05:21.068Z,15.97
2018-12-25T13:07:47.908Z,12.57
2018-12-25T13:10:14.311Z,11.93
2018-12-25T13:12:40.936Z,13.53
2018-12-25T13:15:07.479Z,11.93
2018-12-25T13:17:33.854Z,12.47
2018-12-25T13:20:00.300Z,11.07
2018-12-25T13:22:26.689Z,11.93
2018-12-25T13:24:53.151Z,11.87
2018-12-25T13:27:20.040Z,10.97
2018-12-25T13:29:46.546Z,14.57
2018-12-25T13:32:13.045Z,10.07
2018-12-25T13:34:39.865Z,11.63
2018-12-25T13:37:07.003Z,12.53
2018-12-25T13:39:33.470Z,12.03
2018-12-25T13:42:00.132Z,8.90
2018-12-25T13:44:26.725Z,11.07
2018-12-25T13:46:53.757Z,10.53
2018-12-25T13:49:20.421Z,9.00
2018-12-25T13:51:47.383Z,9.67
2018-12-25T13:54:13.956Z,10.53
2018-12-25T13:56:41.247Z,11.20
2018-12-25T13:59:07.696Z,12.23
2018-12-25T14:01:34.110Z,11.87
2018-12-25T14:04:00.620Z,13.93
2018-12-25T14:06:27.080Z,13.23
2018-12-25T14:08:53.512Z,10.83
2018-12-25T14:11:19.894Z,12.63
2018-12-25T14:13:46.664Z,13.27
2018-12-25T14:16:13.071Z,11.67
2018-12-25T14:18:40.359Z,14.40
2018-12-25T14:21:06.746Z,14.23
2018-12-25T14:23:33.934Z,13.30
2018-12-25T14:26:00.311Z,10.70
2018-12-25T14:28:26.946Z,14.57
2018-12-25T14:30:53.314Z,13.83
2018-12-25T14:33:19.738Z,14.97
2018-12-25T14:35:46.105Z,14.47
2018-12-25T14:38:12.524Z,16.27
2018-12-25T14:40:39.724Z,14.20
2018-12-25T14:43:06.534Z,13.57
2018-12-25T14:45:32.940Z,13.80
2018-12-25T14:47:59.351Z,17.73
2018-12-25T14:50:26.109Z,14.63
2018-12-25T14:52:53.536Z,14.30
2018-12-25T14:55:20.293Z,14.97
2018-12-25T14:57:46.909Z,14.47
2018-12-25T15:00:13.536Z,15.07
2018-12-25T15:02:40.027Z,15.47
2018-12-25T15:05:06.651Z,14.80
2018-12-25T15:07:33.004Z,15.17
2018-12-25T15:09:59.889Z,14.50
2018-12-25T15:12:26.679Z,13.67
2018-12-25T15:14:54.353Z,16.43
2018-12-25T15:17:20.874Z,16.27
2018-12-25T15:19:47.451Z,16.73
2018-12-25T15:22:13.968Z,14.67
2018-12-25T15:24:40.396Z,16.03
2018-12-25T15:27:08.256Z,17.50
2018-12-25T15:29:34.720Z,15.30
2018-12-25T15:32:01.462Z,19.80
2018-12-25T15:34:29.684Z,18.03
2018-12-25T15:36:56.282Z,17.00
2018-12-25T15:39:22.674Z,15.77
2018-12-25T15:41:51.440Z,16.50
2018-12-25T15:44:19.032Z,18.00
2018-12-25T15:46:46.229Z,20.00
2018-12-25T15:49:12.845Z,15.57
2018-12-25T15:51:40.590Z,17.30
2018-12-25T15:54:07.537Z,17.67
2018-12-25T15:56:34.054Z,15.43
2018-12-25T15:59:00.520Z,14.43
2018-12-25T16:01:27.379Z,15.97
2018-12-25T16:03:54.120Z,16.77
2018-12-25T16:06:20.524Z,16.33
2018-12-25T16:08:47.423Z,15.93
2018-12-25T16:11:14.254Z,17.07
2018-12-25T16:13:40.637Z,16.47
2018-12-25T16:16:07.311Z,17.67
2018-12-25T16:18:35.594Z,18.33
2018-12-25T16:21:02.136Z,14.93
2018-12-25T16:23:28.631Z,16.37
2018-12-25T16:25:55.512Z,18.53
2018-12-25T16:28:22.235Z,17.07
2018-12-25T16:30:48.692Z,20.90
2018-12-25T16:33:15.595Z,16.73
2018-12-25T16:35:42.098Z,18.13
2018-12-25T16:38:10.934Z,17.73
2018-12-25T16:40:37.442Z,16.63
2018-12-25T16:43:04.328Z,18.77
2018-12-25T16:45:30.735Z,17.57
2018-12-25T16:47:58.692Z,16.20
2018-12-25T16:50:25.660Z,18.47
2018-12-25T16:52:52.390Z,17.97
2018-12-25T16:55:18.924Z,17.00
2018-12-25T16:57:45.310Z,16.43
2018-12-25T17:00:11.733Z,18.27
2018-12-25T17:02:38.512Z,22.53
2018-12-25T17:05:05.078Z,17.70
2018-12-25T17:07:31.489Z,16.67
2018-12-25T17:09:57.988Z,16.77
2018-12-25T17:12:24.771Z,16.43
2018-12-25T17:14:51.257Z,16.53
2018-12-25T17:17:17.663Z,14.67
2018-12-25T17:19:47.378Z,16.67
2018-12-25T17:22:13.903Z,15.97
2018-12-25T17:24:40.328Z,19.00
2018-12-25T17:27:06.869Z,13.40
2018-12-25T17:29:33.816Z,15.40
2018-12-25T17:32:00.609Z,16.50
2018-12-25T17:34:27.000Z,15.63
2018-12-25T17:36:53.578Z,19.93
2018-12-25T17:39:19.926Z,14.90
2018-12-25T17:41:46.449Z,17.33
2018-12-25T17:44:12.847Z,16.03
2018-12-25T17:46:39.338Z,16.43
2018-12-25T17:49:06.132Z,15.23
2018-12-25T17:51:32.682Z,14.77
2018-12-25T17:53:59.156Z,16.57
2018-12-25T17:56:25.686Z,17.07
2018-12-25T17:58:52.206Z,17.00
2018-12-25T18:01:18.676Z,18.43
2018-12-25T18:03:45.418Z,16.13
2018-12-25T18:06:11.986Z,13.97
2018-12-25T18:08:38.703Z,16.87
2018-12-25T18:11:05.553Z,14.73
2018-12-25T18:13:32.181Z,16.17
2018-12-25T18:15:58.681Z,16.07
2018-12-25T18:18:25.114Z,16.67
2018-12-25T18:20:51.525Z,16.97
2018-12-25T18:23:18.072Z,15.97
2018-12-25T18:25:44.675Z,19.27
2018-12-25T18:28:11.074Z,18.07
2018-12-25T18:30:37.454Z,19.87
2018-12-25T18:33:04.324Z,19.07
2018-12-25T18:35:30.751Z,19.60
2018-12-25T18:37:57.503Z,18.47
2018-12-25T18:40:24.157Z,19.87
2018-12-25T18:42:50.915Z,19.77
2018-12-25T18:45:17.319Z,22.33
2018-12-25T18:47:43.714Z,19.97
2018-12-25T18:50:11.432Z,19.80
2018-12-25T18:52:38.287Z,23.53
2018-12-25T18:55:05.428Z,20.00
2018-12-25T18:57:32.463Z,24.20
2018-12-25T18:59:59.193Z,19.33
2018-12-25T19:02:25.555Z,19.20
2018-12-25T19:04:51.957Z,19.13
2018-12-25T19:07:18.372Z,18.63
2018-12-25T19:09:46.119Z,21.53
2018-12-25T19:12:13.681Z,19.70
2018-12-25T19:14:45.187Z,18.77
2018-12-25T19:17:11.666Z,20.13
2018-12-25T19:19:39.341Z,22.47
2018-12-25T19:22:06.248Z,19.50
2018-12-25T19:24:36.386Z,22.00
2018-12-25T19:27:00.921Z,20.33
2018-12-25T19:29:27.466Z,24.23
2018-12-25T19:31:53.942Z,22.07
2018-12-25T19:34:20.423Z,22.13
2018-12-25T19:36:47.049Z,21.97
2018-12-25T19:39:13.682Z,21.70
2018-12-25T19:41:40.250Z,23.77
2018-12-25T19:44:07.092Z,20.33
2018-12-25T19:46:33.745Z,22.37
2018-12-25T19:49:00.697Z,20.90
2018-12-25T19:51:27.254Z,24.53
2018-12-25T19:53:54.009Z,22.43
2018-12-25T19:56:20.980Z,23.47
2018-12-25T19:58:47.673Z,25.67
2018-12-25T20:01:14.330Z,20.87
2018-12-25T20:03:42.198Z,22.83
2018-12-25T20:06:12.444Z,23.27
2018-12-25T20:08:45.537Z,22.37
2018-12-25T20:11:21.283Z,21.40
2018-12-25T20:14:00.276Z,23.97
2018-12-25T20:16:42.924Z,22.90
2018-12-25T20:19:22.005Z,22.27
2018-12-25T20:22:09.367Z,26.37
2018-12-25T20:24:38.052Z,25.97
2018-12-25T20:27:15.909Z,23.27
2018-12-25T20:30:04.644Z,26.63
2018-12-25T20:32:54.565Z,22.53
2018-12-25T20:35:37.431Z,26.73
2018-12-25T20:38:19.995Z,24.90
2018-12-25T20:41:09.636Z,25.70
2018-12-25T20:43:59.741Z,25.73
2018-12-25T20:46:28.486Z,25.63
2018-12-25T20:49:17.946Z,27.90
2018-12-25T20:52:03.242Z,28.60
2018-12-25T20:54:42.867Z,25.20
2018-12-25T20:57:24.663Z,28.33
2018-12-25T21:00:08.335Z,27.40
2018-12-25T21:03:07.532Z,26.80
2018-12-25T21:05:49.965Z,25.47
2018-12-25T21:08:32.326Z,29.07
2018-12-25T21:11:22.390Z,27.00
2018-12-25T21:14:10.652Z,27.53
2018-12-25T21:16:56.223Z,33.90
2018-12-25T21:19:35.102Z,29.77
2018-12-25T21:22:21.759Z,29.87
2018-12-25T21:25:25.788Z,30.57
2018-12-25T21:27:51.949Z,31.60
2018-12-25T21:30:18.665Z,32.47
2018-12-25T21:32:45.416Z,32.17
2018-12-25T21:35:15.563Z,32.83
2018-12-25T21:37:42.294Z,36.37
2018-12-25T21:40:08.889Z,33.03
2018-12-25T21:42:39.150Z,38.23
2018-12-25T21:45:07.113Z,38.77
2018-12-25T21:47:35.516Z,33.80
2018-12-25T21:50:02.847Z,31.30
2018-12-25T21:52:29.689Z,32.03
2018-12-25T21:54:56.641Z,29.47
2018-12-25T21:57:23.743Z,30.30
2018-12-25T21:59:51.068Z,31.33
2018-12-25T22:02:17.775Z,30.30
2018-12-25T22:04:44.534Z,30.37
2018-12-25T22:07:11.056Z,31.67
2018-12-25T22:09:37.441Z,31.67
2018-12-25T22:12:04.060Z,33.97
2018-12-25T22:14:30.833Z,33.90
2018-12-25T22:16:57.577Z,34.40
2018-12-25T22:19:24.417Z,30.60
2018-12-25T22:21:50.941Z,32.30
2018-12-25T22:24:17.374Z,33.33
2018-12-25T22:26:44.247Z,32.40
2018-12-25T22:29:10.701Z,30.33
2018-12-25T22:31:37.193Z,36.33
2018-12-25T22:34:03.710Z,38.20
2018-12-25T22:36:30.167Z,35.67
2018-12-25T22:38:56.639Z,36.70
2018-12-25T22:41:23.237Z,38.87
2018-12-25T22:43:50.493Z,37.43
2018-12-25T22:46:17.075Z,37.90
2018-12-25T22:48:43.523Z,36.37
2018-12-25T22:51:10.044Z,35.40
2018-12-25T22:53:36.833Z,43.17
2018-12-25T22:56:03.255Z,50.23
2018-12-25T22:58:29.788Z,41.77
2018-12-25T23:00:56.662Z,45.20
2018-12-25T23:03:23.126Z,42.53
2018-12-25T23:05:49.586Z,40.87
2018-12-25T23:08:16.052Z,40.73
2018-12-25T23:10:42.838Z,44.90
2018-12-25T23:13:09.256Z,44.33
2018-12-25T23:15:35.998Z,44.33
2018-12-25T23:18:02.505Z,45.00
2018-12-25T23:20:29.161Z,46.30
2018-12-25T23:22:55.610Z,44.33
2018-12-25T23:25:22.023Z,45.20
2018-12-25T23:27:48.649Z,45.33
2018-12-25T23:30:15.554Z,48.33
2018-12-25T23:32:42.021Z,48.90
2018-12-25T23:35:08.547Z,43.20
2018-12-25T23:37:35.237Z,49.80
2018-12-25T23:40:01.831Z,46.80
2018-12-25T23:42:28.275Z,49.90
2018-12-25T23:44:55.049Z,45.57
2018-12-25T23:47:21.435Z,47.60
2018-12-25T23:49:48.290Z,50.73
2018-12-25T23:52:14.878Z,46.43
2018-12-25T23:54:41.427Z,50.63
2018-12-25T23:57:08.258Z,48.73
2018-12-25T23:59:34.678Z,52.47
